sensor_id;sensor_type;location;lat;lon;timestamp;pressure;altitude;pressure_sealevel;temperature;humidity
70304;BME280;57712;48.752;11.348;2023-03-01T00:01:30;98236.34;;;0.84;100.00
70304;BME280;57712;48.752;11.348;2023-03-01T00:03:59;98243.50;;;0.80;100.00
70304;BME280;57712;48.752;11.348;2023-03-01T00:06:26;98242.38;;;0.81;100.00
70304;BME280;57712;48.752;11.348;2023-03-01T00:08:54;98237.78;;;0.81;100.00
70304;BME280;57712;48.752;11.348;2023-03-01T00:11:26;98228.81;;;0.90;100.00
70304;BME280;57712;48.752;11.348;2023-03-01T00:13:55;98232.03;;;0.83;100.00
70304;BME280;57712;48.752;11.348;2023-03-01T00:16:28;98230.47;;;0.82;100.00
70304;BME280;57712;48.752;11.348;2023-03-01T00:18:56;98235.56;;;0.83;100.00
70304;BME280;57712;48.752;11.348;2023-03-01T00:21:23;98226.09;;;0.90;100.00
70304;BME280;57712;48.752;11.348;2023-03-01T00:23:50;98217.91;;;0.86;100.00
70304;BME280;57712;48.752;11.348;2023-03-01T00:26:17;98233.41;;;0.89;100.00
70304;BME280;57712;48.752;11.348;2023-03-01T00:28:45;98222.38;;;0.82;100.00
70304;BME280;57712;48.752;11.348;2023-03-01T00:31:15;98221.72;;;0.85;100.00
70304;BME280;57712;48.752;11.348;2023-03-01T00:33:42;98208.47;;;0.80;100.00
70304;BME280;57712;48.752;11.348;2023-03-01T00:36:10;98213.66;;;0.85;100.00
70304;BME280;57712;48.752;11.348;2023-03-01T00:38:39;98213.66;;;0.85;100.00
70304;BME280;57712;48.752;11.348;2023-03-01T00:41:08;98213.84;;;0.80;100.00
70304;BME280;57712;48.752;11.348;2023-03-01T00:43:35;98221.41;;;0.74;100.00
70304;BME280;57712;48.752;11.348;2023-03-01T00:46:08;98220.13;;;0.72;100.00
70304;BME280;57712;48.752;11.348;2023-03-01T00:48:36;98216.78;;;0.75;100.00
70304;BME280;57712;48.752;11.348;2023-03-01T00:51:07;98219.00;;;0.73;100.00
70304;BME280;57712;48.752;11.348;2023-03-01T00:53:35;98224.41;;;0.73;100.00
70304;BME280;57712;48.752;11.348;2023-03-01T00:56:03;98222.19;;;0.75;100.00
70304;BME280;57712;48.752;11.348;2023-03-01T00:58:30;98208.81;;;0.78;100.00
70304;BME280;57712;48.752;11.348;2023-03-01T01:00:57;98211.50;;;0.78;100.00
70304;BME280;57712;48.752;11.348;2023-03-01T01:03:24;98200.16;;;0.85;100.00
70304;BME280;57712;48.752;11.348;2023-03-01T01:05:53;98200.03;;;0.81;100.00
70304;BME280;57712;48.752;11.348;2023-03-01T01:08:20;98200.94;;;0.85;100.00
70304;BME280;57712;48.752;11.348;2023-03-01T01:10:47;98197.13;;;0.86;100.00
70304;BME280;57712;48.752;11.348;2023-03-01T01:13:13;98197.47;;;0.85;100.00
70304;BME280;57712;48.752;11.348;2023-03-01T01:15:40;98188.25;;;0.74;100.00
70304;BME280;57712;48.752;11.348;2023-03-01T01:18:07;98191.41;;;0.76;100.00
70304;BME280;57712;48.752;11.348;2023-03-01T01:20:35;98184.31;;;0.71;100.00
70304;BME280;57712;48.752;11.348;2023-03-01T01:23:05;98176.34;;;0.75;100.00
70304;BME280;57712;48.752;11.348;2023-03-01T01:25:35;98187.56;;;0.77;100.00
70304;BME280;57712;48.752;11.348;2023-03-01T01:28:02;98181.94;;;0.70;100.00
70304;BME280;57712;48.752;11.348;2023-03-01T01:30:29;98183.06;;;0.81;100.00
70304;BME280;57712;48.752;11.348;2023-03-01T01:32:55;98172.53;;;0.64;100.00
70304;BME280;57712;48.752;11.348;2023-03-01T01:35:22;98174.97;;;0.69;100.00
70304;BME280;57712;48.752;11.348;2023-03-01T01:37:48;98169.59;;;0.69;100.00
70304;BME280;57712;48.752;11.348;2023-03-01T01:40:15;98177.91;;;0.64;100.00
70304;BME280;57712;48.752;11.348;2023-03-01T01:42:42;98167.56;;;0.66;100.00
70304;BME280;57712;48.752;11.348;2023-03-01T01:45:33;98173.16;;;0.73;100.00
70304;BME280;57712;48.752;11.348;2023-03-01T01:48:05;98169.84;;;0.64;100.00
70304;BME280;57712;48.752;11.348;2023-03-01T01:50:34;98168.69;;;0.65;100.00
70304;BME280;57712;48.752;11.348;2023-03-01T01:53:11;98166.00;;;0.65;100.00
70304;BME280;57712;48.752;11.348;2023-03-01T01:55:48;98160.81;;;0.60;100.00
70304;BME280;57712;48.752;11.348;2023-03-01T01:58:19;98164.41;;;0.51;100.00
70304;BME280;57712;48.752;11.348;2023-03-01T02:00:47;98153.63;;;0.51;100.00
70304;BME280;57712;48.752;11.348;2023-03-01T02:03:18;98149.03;;;0.52;100.00
70304;BME280;57712;48.752;11.348;2023-03-01T02:08:25;98150.28;;;0.54;100.00
70304;BME280;57712;48.752;11.348;2023-03-01T02:10:54;98155.00;;;0.57;100.00
70304;BME280;57712;48.752;11.348;2023-03-01T02:13:21;98149.16;;;0.55;100.00
70304;BME280;57712;48.752;11.348;2023-03-01T02:15:49;98154.31;;;0.61;100.00
70304;BME280;57712;48.752;11.348;2023-03-01T02:18:17;98148.03;;;0.56;100.00
70304;BME280;57712;48.752;11.348;2023-03-01T02:23:20;98141.94;;;0.72;100.00
70304;BME280;57712;48.752;11.348;2023-03-01T02:25:52;98148.56;;;0.62;100.00
70304;BME280;57712;48.752;11.348;2023-03-01T02:28:25;98144.00;;;0.63;100.00
70304;BME280;57712;48.752;11.348;2023-03-01T02:30:53;98142.41;;;0.62;100.00
70304;BME280;57712;48.752;11.348;2023-03-01T02:33:39;98130.72;;;0.57;100.00
70304;BME280;57712;48.752;11.348;2023-03-01T02:36:09;98132.97;;;0.68;100.00
70304;BME280;57712;48.752;11.348;2023-03-01T02:38:37;98122.75;;;0.61;100.00
70304;BME280;57712;48.752;11.348;2023-03-01T02:41:05;98117.94;;;0.54;100.00
70304;BME280;57712;48.752;11.348;2023-03-01T02:43:34;98126.91;;;0.58;100.00
70304;BME280;57712;48.752;11.348;2023-03-01T02:46:12;98129.41;;;0.64;100.00
70304;BME280;57712;48.752;11.348;2023-03-01T02:48:45;98119.06;;;0.66;100.00
70304;BME280;57712;48.752;11.348;2023-03-01T02:54:28;98117.25;;;0.70;100.00
70304;BME280;57712;48.752;11.348;2023-03-01T02:56:53;98116.56;;;0.61;100.00
70304;BME280;57712;48.752;11.348;2023-03-01T02:59:24;98117.94;;;0.54;100.00
70304;BME280;57712;48.752;11.348;2023-03-01T03:01:53;98116.03;;;0.55;100.00
70304;BME280;57712;48.752;11.348;2023-03-01T03:04:20;98116.22;;;0.62;100.00
70304;BME280;57712;48.752;11.348;2023-03-01T03:06:48;98116.81;;;0.55;100.00
70304;BME280;57712;48.752;11.348;2023-03-01T03:09:16;98114.66;;;0.61;100.00
70304;BME280;57712;48.752;11.348;2023-03-01T03:11:43;98107.16;;;0.42;100.00
70304;BME280;57712;48.752;11.348;2023-03-01T03:14:11;98107.81;;;0.39;100.00
70304;BME280;57712;48.752;11.348;2023-03-01T03:16:40;98104.22;;;0.23;100.00
70304;BME280;57712;48.752;11.348;2023-03-01T03:19:07;98103.31;;;0.19;100.00
70304;BME280;57712;48.752;11.348;2023-03-01T03:21:34;98096.59;;;0.13;100.00
70304;BME280;57712;48.752;11.348;2023-03-01T03:24:01;98093.91;;;0.13;100.00
70304;BME280;57712;48.752;11.348;2023-03-01T03:26:28;98096.78;;;0.08;100.00
70304;BME280;57712;48.752;11.348;2023-03-01T03:28:55;98105.75;;;-0.01;100.00
70304;BME280;57712;48.752;11.348;2023-03-01T03:31:22;98102.50;;;-0.06;100.00
70304;BME280;57712;48.752;11.348;2023-03-01T03:33:49;98103.53;;;0.02;100.00
70304;BME280;57712;48.752;11.348;2023-03-01T03:36:22;98096.75;;;-0.17;100.00
70304;BME280;57712;48.752;11.348;2023-03-01T03:38:49;98096.75;;;-0.17;100.00
70304;BME280;57712;48.752;11.348;2023-03-01T03:41:17;98096.50;;;-0.24;100.00
70304;BME280;57712;48.752;11.348;2023-03-01T03:43:44;98093.81;;;-0.24;100.00
70304;BME280;57712;48.752;11.348;2023-03-01T03:46:11;98088.41;;;-0.36;100.00
70304;BME280;57712;48.752;11.348;2023-03-01T03:48:43;98089.88;;;-0.39;100.00
70304;BME280;57712;48.752;11.348;2023-03-01T03:51:12;98086.38;;;-0.39;100.00
70304;BME280;57712;48.752;11.348;2023-03-01T03:53:39;98088.16;;;-0.43;100.00
70304;BME280;57712;48.752;11.348;2023-03-01T03:56:06;98086.13;;;-0.46;100.00
70304;BME280;57712;48.752;11.348;2023-03-01T03:58:33;98083.84;;;-0.56;100.00
70304;BME280;57712;48.752;11.348;2023-03-01T04:01:00;98084.53;;;-0.60;100.00
70304;BME280;57712;48.752;11.348;2023-03-01T04:03:28;98083.28;;;-0.62;100.00
70304;BME280;57712;48.752;11.348;2023-03-01T04:05:58;98084.94;;;-0.70;100.00
70304;BME280;57712;48.752;11.348;2023-03-01T04:08:25;98094.75;;;-0.74;100.00
70304;BME280;57712;48.752;11.348;2023-03-01T04:10:57;98091.03;;;-0.81;100.00
70304;BME280;57712;48.752;11.348;2023-03-01T04:13:24;98086.63;;;-0.86;100.00
70304;BME280;57712;48.752;11.348;2023-03-01T04:15:53;98084.16;;;-0.91;100.00
70304;BME280;57712;48.752;11.348;2023-03-01T04:18:21;98080.34;;;-0.90;100.00
70304;BME280;57712;48.752;11.348;2023-03-01T04:20:49;98086.25;;;-0.97;100.00
70304;BME280;57712;48.752;11.348;2023-03-01T04:23:17;98087.25;;;-1.01;100.00
70304;BME280;57712;48.752;11.348;2023-03-01T04:28:25;98078.53;;;-0.98;100.00
70304;BME280;57712;48.752;11.348;2023-03-01T04:30:55;98084.09;;;-1.03;100.00
70304;BME280;57712;48.752;11.348;2023-03-01T04:33:23;98081.59;;;-1.08;100.00
70304;BME280;57712;48.752;11.348;2023-03-01T04:35:50;98077.28;;;-1.01;100.00
70304;BME280;57712;48.752;11.348;2023-03-01T04:38:18;98065.28;;;-1.03;100.00
70304;BME280;57712;48.752;11.348;2023-03-01T04:40:44;98063.25;;;-1.06;100.00
70304;BME280;57712;48.752;11.348;2023-03-01T04:43:12;98072.63;;;-1.12;100.00
70304;BME280;57712;48.752;11.348;2023-03-01T04:45:42;98066.00;;;-1.15;100.00
70304;BME280;57712;48.752;11.348;2023-03-01T04:48:08;98071.06;;;-1.13;100.00
70304;BME280;57712;48.752;11.348;2023-03-01T04:50:35;98070.91;;;-1.17;100.00
70304;BME280;57712;48.752;11.348;2023-03-01T04:53:02;98074.88;;;-1.14;100.00
70304;BME280;57712;48.752;11.348;2023-03-01T04:55:29;98075.31;;;-1.12;100.00
70304;BME280;57712;48.752;11.348;2023-03-01T04:57:55;98071.84;;;-1.13;100.00
70304;BME280;57712;48.752;11.348;2023-03-01T05:00:23;98065.19;;;-1.16;100.00
70304;BME280;57712;48.752;11.348;2023-03-01T05:02:53;98072.63;;;-1.12;100.00
70304;BME280;57712;48.752;11.348;2023-03-01T05:05:28;98076.28;;;-1.17;100.00
70304;BME280;57712;48.752;11.348;2023-03-01T05:07:58;98070.78;;;-1.21;100.00
70304;BME280;57712;48.752;11.348;2023-03-01T05:10:27;98065.91;;;-1.27;100.00
70304;BME280;57712;48.752;11.348;2023-03-01T05:12:56;98070.25;;;-1.35;100.00
70304;BME280;57712;48.752;11.348;2023-03-01T05:15:27;98072.47;;;-1.37;100.00
70304;BME280;57712;48.752;11.348;2023-03-01T05:17:56;98067.16;;;-1.46;100.00
70304;BME280;57712;48.752;11.348;2023-03-01T05:20:29;98068.88;;;-1.41;100.00
70304;BME280;57712;48.752;11.348;2023-03-01T05:22:58;98070.63;;;-1.45;100.00
70304;BME280;57712;48.752;11.348;2023-03-01T05:25:27;98067.78;;;-1.49;100.00
70304;BME280;57712;48.752;11.348;2023-03-01T05:27:53;98068.25;;;-1.47;100.00
70304;BME280;57712;48.752;11.348;2023-03-01T05:30:21;98071.28;;;-1.48;100.00
70304;BME280;57712;48.752;11.348;2023-03-01T05:32:49;98071.28;;;-1.48;100.00
70304;BME280;57712;48.752;11.348;2023-03-01T05:35:22;98065.13;;;-1.49;100.00
70304;BME280;57712;48.752;11.348;2023-03-01T05:37:49;98071.28;;;-1.48;100.00
70304;BME280;57712;48.752;11.348;2023-03-01T05:40:21;98065.91;;;-1.48;100.00
70304;BME280;57712;48.752;11.348;2023-03-01T05:42:50;98053.78;;;-1.54;100.00
70304;BME280;57712;48.752;11.348;2023-03-01T05:45:18;98063.41;;;-1.53;100.00
70304;BME280;57712;48.752;11.348;2023-03-01T05:47:46;98057.88;;;-1.57;100.00
70304;BME280;57712;48.752;11.348;2023-03-01T05:50:22;98063.41;;;-1.53;100.00
70304;BME280;57712;48.752;11.348;2023-03-01T05:52:51;98057.59;;;-1.55;100.00
70304;BME280;57712;48.752;11.348;2023-03-01T05:55:19;98057.88;;;-1.57;100.00
70304;BME280;57712;48.752;11.348;2023-03-01T05:57:47;98066.28;;;-1.58;100.00
70304;BME280;57712;48.752;11.348;2023-03-01T06:00:16;98064.91;;;-1.64;100.00
70304;BME280;57712;48.752;11.348;2023-03-01T06:02:43;98066.47;;;-1.63;100.00
70304;BME280;57712;48.752;11.348;2023-03-01T06:05:11;98059.19;;;-1.63;100.00
70304;BME280;57712;48.752;11.348;2023-03-01T06:07:39;98066.47;;;-1.63;100.00
70304;BME280;57712;48.752;11.348;2023-03-01T06:10:07;98069.16;;;-1.63;100.00
70304;BME280;57712;48.752;11.348;2023-03-01T06:12:36;98070.72;;;-1.62;100.00
70304;BME280;57712;48.752;11.348;2023-03-01T06:15:04;98071.47;;;-1.53;100.00
70304;BME280;57712;48.752;11.348;2023-03-01T06:17:33;98068.63;;;-1.57;100.00
70304;BME280;57712;48.752;11.348;2023-03-01T06:20:05;98078.13;;;-1.59;100.00
70304;BME280;57712;48.752;11.348;2023-03-01T06:22:33;98069.44;;;-1.56;100.00
70304;BME280;57712;48.752;11.348;2023-03-01T06:25:00;98068.19;;;-1.59;100.00
70304;BME280;57712;48.752;11.348;2023-03-01T06:27:29;98061.84;;;-1.54;100.00
70304;BME280;57712;48.752;11.348;2023-03-01T06:29:56;98067.63;;;-1.43;100.00
70304;BME280;57712;48.752;11.348;2023-03-01T06:32:22;98062.88;;;-1.47;100.00
70304;BME280;57712;48.752;11.348;2023-03-01T06:34:49;98060.94;;;-1.37;100.00
70304;BME280;57712;48.752;11.348;2023-03-01T06:37:16;98064.59;;;-1.42;100.00
70304;BME280;57712;48.752;11.348;2023-03-01T06:39:44;98065.91;;;-1.48;100.00
70304;BME280;57712;48.752;11.348;2023-03-01T06:42:11;98074.56;;;-1.42;100.00
70304;BME280;57712;48.752;11.348;2023-03-01T06:44:38;98075.16;;;-1.37;100.00
70304;BME280;57712;48.752;11.348;2023-03-01T06:47:05;98073.66;;;-1.26;100.00
70304;BME280;57712;48.752;11.348;2023-03-01T06:49:31;98072.81;;;-1.18;100.00
70304;BME280;57712;48.752;11.348;2023-03-01T06:51:58;98069.06;;;-1.04;100.00
70304;BME280;57712;48.752;11.348;2023-03-01T06:54:25;98072.34;;;-0.99;100.00
70304;BME280;57712;48.752;11.348;2023-03-01T06:56:51;98070.28;;;-0.93;100.00
70304;BME280;57712;48.752;11.348;2023-03-01T06:59:19;98069.72;;;-0.87;100.00
70304;BME280;57712;48.752;11.348;2023-03-01T07:01:45;98064.50;;;-0.83;100.00
70304;BME280;57712;48.752;11.348;2023-03-01T07:04:13;98064.31;;;-0.66;100.00
70304;BME280;57712;48.752;11.348;2023-03-01T07:06:41;98064.47;;;-0.62;100.00
70304;BME280;57712;48.752;11.348;2023-03-01T07:09:07;98057.19;;;-0.62;100.00
70304;BME280;57712;48.752;11.348;2023-03-01T07:11:34;98058.09;;;-0.45;100.00
70304;BME280;57712;48.752;11.348;2023-03-01T07:14:00;98055.22;;;-0.40;100.00
70304;BME280;57712;48.752;11.348;2023-03-01T07:16:27;98057.94;;;-0.28;100.00
70304;BME280;57712;48.752;11.348;2023-03-01T07:18:54;98049.44;;;-0.18;100.00
70304;BME280;57712;48.752;11.348;2023-03-01T07:21:22;98050.22;;;0.07;100.00
70304;BME280;57712;48.752;11.348;2023-03-01T07:23:48;98043.06;;;0.11;100.00
70304;BME280;57712;48.752;11.348;2023-03-01T07:26:15;98038.91;;;0.02;100.00
70304;BME280;57712;48.752;11.348;2023-03-01T07:28:41;98043.59;;;0.29;100.00
70304;BME280;57712;48.752;11.348;2023-03-01T07:31:08;98042.03;;;0.52;100.00
70304;BME280;57712;48.752;11.348;2023-03-01T07:33:35;98047.06;;;0.66;100.00
70304;BME280;57712;48.752;11.348;2023-03-01T07:36:03;98039.41;;;0.68;100.00
70304;BME280;57712;48.752;11.348;2023-03-01T07:38:30;98046.69;;;0.80;100.00
70304;BME280;57712;48.752;11.348;2023-03-01T07:40:58;98040.53;;;1.07;100.00
70304;BME280;57712;48.752;11.348;2023-03-01T07:43:26;98043.75;;;1.13;100.00
70304;BME280;57712;48.752;11.348;2023-03-01T07:45:52;98043.84;;;1.29;100.00
70304;BME280;57712;48.752;11.348;2023-03-01T07:48:19;98037.50;;;1.37;100.00
70304;BME280;57712;48.752;11.348;2023-03-01T07:50:46;98046.22;;;1.46;100.00
70304;BME280;57712;48.752;11.348;2023-03-01T07:53:12;98030.53;;;1.36;100.00
70304;BME280;57712;48.752;11.348;2023-03-01T07:55:39;98036.84;;;1.71;100.00
70304;BME280;57712;48.752;11.348;2023-03-01T07:58:05;98031.75;;;2.49;100.00
70304;BME280;57712;48.752;11.348;2023-03-01T08:00:32;98037.31;;;1.89;100.00
70304;BME280;57712;48.752;11.348;2023-03-01T08:02:59;98039.00;;;2.45;100.00
70304;BME280;57712;48.752;11.348;2023-03-01T08:05:27;98037.41;;;2.59;100.00
70304;BME280;57712;48.752;11.348;2023-03-01T08:07:54;98034.56;;;2.37;100.00
70304;BME280;57712;48.752;11.348;2023-03-01T08:10:21;98037.28;;;2.37;100.00
70304;BME280;57712;48.752;11.348;2023-03-01T08:12:51;98039.31;;;2.59;100.00
70304;BME280;57712;48.752;11.348;2023-03-01T08:15:17;98030.91;;;2.45;100.00
70304;BME280;57712;48.752;11.348;2023-03-01T08:17:45;98039.59;;;2.89;100.00
70304;BME280;57712;48.752;11.348;2023-03-01T08:20:11;98037.31;;;3.10;100.00
70304;BME280;57712;48.752;11.348;2023-03-01T08:22:39;98034.28;;;2.93;100.00
70304;BME280;57712;48.752;11.348;2023-03-01T08:25:05;98040.03;;;2.56;100.00
70304;BME280;57712;48.752;11.348;2023-03-01T08:27:32;98034.38;;;2.61;100.00
70304;BME280;57712;48.752;11.348;2023-03-01T08:29:58;98032.28;;;2.54;100.00
70304;BME280;57712;48.752;11.348;2023-03-01T08:32:25;98032.00;;;2.59;100.00
70304;BME280;57712;48.752;11.348;2023-03-01T08:34:52;98031.69;;;2.45;100.00
70304;BME280;57712;48.752;11.348;2023-03-01T08:37:18;98038.22;;;2.79;100.00
70304;BME280;57712;48.752;11.348;2023-03-01T08:39:46;98023.31;;;2.50;100.00
70304;BME280;57712;48.752;11.348;2023-03-01T08:42:13;98028.31;;;2.68;100.00
70304;BME280;57712;48.752;11.348;2023-03-01T08:44:39;98024.69;;;2.79;100.00
70304;BME280;57712;48.752;11.348;2023-03-01T08:47:06;98020.16;;;2.83;100.00
70304;BME280;57712;48.752;11.348;2023-03-01T08:49:33;98029.69;;;2.77;100.00
70304;BME280;57712;48.752;11.348;2023-03-01T08:51:59;98023.56;;;3.00;100.00
70304;BME280;57712;48.752;11.348;2023-03-01T08:54:25;98019.94;;;3.11;100.00
70304;BME280;57712;48.752;11.348;2023-03-01T08:56:52;98012.47;;;3.24;100.00
70304;BME280;57712;48.752;11.348;2023-03-01T08:59:19;98012.91;;;3.07;100.00
70304;BME280;57712;48.752;11.348;2023-03-01T09:01:45;98013.53;;;3.19;100.00
70304;BME280;57712;48.752;11.348;2023-03-01T09:04:12;98001.66;;;3.05;100.00
70304;BME280;57712;48.752;11.348;2023-03-01T09:06:40;98008.22;;;3.23;100.00
70304;BME280;57712;48.752;11.348;2023-03-01T09:09:13;98011.91;;;3.15;100.00
70304;BME280;57712;48.752;11.348;2023-03-01T09:11:42;98003.31;;;3.32;98.16
70304;BME280;57712;48.752;11.348;2023-03-01T09:14:09;97999.44;;;3.53;99.01
70304;BME280;57712;48.752;11.348;2023-03-01T09:16:36;97998.78;;;3.36;95.35
70304;BME280;57712;48.752;11.348;2023-03-01T09:19:03;97981.41;;;3.18;96.96
70304;BME280;57712;48.752;11.348;2023-03-01T09:21:30;97970.72;;;3.25;96.82
70304;BME280;57712;48.752;11.348;2023-03-01T09:24:12;97978.94;;;3.52;96.31
70304;BME280;57712;48.752;11.348;2023-03-01T09:26:39;97984.06;;;3.57;98.48
70304;BME280;57712;48.752;11.348;2023-03-01T09:29:06;97978.69;;;3.37;94.43
70304;BME280;57712;48.752;11.348;2023-03-01T09:31:33;97973.94;;;3.54;95.11
70304;BME280;57712;48.752;11.348;2023-03-01T09:33:59;97981.03;;;3.62;91.73
70304;BME280;57712;48.752;11.348;2023-03-01T09:36:26;97966.16;;;3.75;95.48
70304;BME280;57712;48.752;11.348;2023-03-01T09:38:52;97955.16;;;3.64;94.52
70304;BME280;57712;48.752;11.348;2023-03-01T09:41:30;97958.56;;;3.84;96.43
70304;BME280;57712;48.752;11.348;2023-03-01T09:46:50;97959.13;;;4.20;93.94
70304;BME280;57712;48.752;11.348;2023-03-01T09:49:26;97959.63;;;4.02;95.33
70304;BME280;57712;48.752;11.348;2023-03-01T09:52:24;97957.97;;;3.94;91.04
70304;BME280;57712;48.752;11.348;2023-03-01T09:54:55;97963.38;;;3.94;92.46
70304;BME280;57712;48.752;11.348;2023-03-01T09:57:36;97955.84;;;4.07;94.81
70304;BME280;57712;48.752;11.348;2023-03-01T10:00:43;97956.84;;;4.48;90.45
70304;BME280;57712;48.752;11.348;2023-03-01T10:03:32;97954.00;;;4.41;92.98
70304;BME280;57712;48.752;11.348;2023-03-01T10:06:11;97952.03;;;4.68;89.65
70304;BME280;57712;48.752;11.348;2023-03-01T10:09:20;97950.91;;;4.69;91.97
70304;BME280;57712;48.752;11.348;2023-03-01T10:11:48;97944.22;;;4.33;89.99
70304;BME280;57712;48.752;11.348;2023-03-01T10:16:58;97947.97;;;4.25;89.58
70304;BME280;57712;48.752;11.348;2023-03-01T10:19:42;97939.75;;;4.18;88.88
70304;BME280;57712;48.752;11.348;2023-03-01T10:22:27;97938.66;;;4.52;89.91
70304;BME280;57712;48.752;11.348;2023-03-01T10:24:59;97929.97;;;4.70;88.35
70304;BME280;57712;48.752;11.348;2023-03-01T10:27:39;97929.53;;;4.68;90.11
70304;BME280;57712;48.752;11.348;2023-03-01T10:32:54;97915.50;;;4.92;87.15
70304;BME280;57712;48.752;11.348;2023-03-01T10:35:27;97906.75;;;5.09;84.40
70304;BME280;57712;48.752;11.348;2023-03-01T10:38:09;97911.59;;;5.27;86.16
70304;BME280;57712;48.752;11.348;2023-03-01T10:40:50;97901.41;;;6.05;81.15
70304;BME280;57712;48.752;11.348;2023-03-01T10:43:17;97902.34;;;5.35;81.30
70304;BME280;57712;48.752;11.348;2023-03-01T10:45:44;97901.09;;;6.24;74.29
70304;BME280;57712;48.752;11.348;2023-03-01T10:48:25;97899.41;;;6.02;76.72
70304;BME280;57712;48.752;11.348;2023-03-01T10:53:36;97893.50;;;6.55;71.17
70304;BME280;57712;48.752;11.348;2023-03-01T10:56:11;97890.88;;;6.87;70.88
70304;BME280;57712;48.752;11.348;2023-03-01T10:58:58;97888.91;;;6.77;69.69
70304;BME280;57712;48.752;11.348;2023-03-01T11:01:27;97886.34;;;7.30;66.38
70304;BME280;57712;48.752;11.348;2023-03-01T11:06:39;97880.84;;;7.16;62.85
70304;BME280;57712;48.752;11.348;2023-03-01T11:09:21;97877.69;;;6.89;63.09
70304;BME280;57712;48.752;11.348;2023-03-01T11:11:55;97871.97;;;6.25;64.52
70304;BME280;57712;48.752;11.348;2023-03-01T11:14:24;97866.50;;;7.65;62.07
70304;BME280;57712;48.752;11.348;2023-03-01T11:17:15;97857.91;;;7.60;60.45
70304;BME280;57712;48.752;11.348;2023-03-01T11:19:59;97866.88;;;7.21;61.23
70304;BME280;57712;48.752;11.348;2023-03-01T11:22:28;97852.06;;;7.22;62.19
70304;BME280;57712;48.752;11.348;2023-03-01T11:24:56;97843.88;;;7.93;60.56
70304;BME280;57712;48.752;11.348;2023-03-01T11:27:41;97847.38;;;7.97;61.88
70304;BME280;57712;48.752;11.348;2023-03-01T11:30:15;97844.28;;;7.13;62.63
70304;BME280;57712;48.752;11.348;2023-03-01T11:32:56;97830.19;;;8.11;62.99
70304;BME280;57712;48.752;11.348;2023-03-01T11:35:27;97842.72;;;7.76;60.23
70304;BME280;57712;48.752;11.348;2023-03-01T11:40:33;97825.97;;;7.57;60.95
70304;BME280;57712;48.752;11.348;2023-03-01T11:43:33;97814.38;;;8.68;61.89
70304;BME280;57712;48.752;11.348;2023-03-01T11:46:27;97814.63;;;7.97;59.98
70304;BME280;57712;48.752;11.348;2023-03-01T12:05:42;97792.66;;;8.47;57.24
70304;BME280;57712;48.752;11.348;2023-03-01T12:08:20;97781.06;;;8.15;56.11
70304;BME280;57712;48.752;11.348;2023-03-01T12:11:00;97768.53;;;8.35;58.69
70304;BME280;57712;48.752;11.348;2023-03-01T12:19:17;97759.47;;;9.94;53.20
70304;BME280;57712;48.752;11.348;2023-03-01T12:22:09;97750.63;;;9.41;51.72
70304;BME280;57712;48.752;11.348;2023-03-01T12:28:06;97742.53;;;9.68;53.51
70304;BME280;57712;48.752;11.348;2023-03-01T12:31:09;97747.44;;;8.39;54.12
70304;BME280;57712;48.752;11.348;2023-03-01T12:41:51;97736.16;;;9.44;56.29
70304;BME280;57712;48.752;11.348;2023-03-01T12:50:27;97724.38;;;10.19;51.41
70304;BME280;57712;48.752;11.348;2023-03-01T12:52:58;97716.03;;;10.87;49.52
70304;BME280;57712;48.752;11.348;2023-03-01T12:55:41;97711.41;;;10.81;54.38
70304;BME280;57712;48.752;11.348;2023-03-01T13:01:14;97708.03;;;9.44;51.86
70304;BME280;57712;48.752;11.348;2023-03-01T13:09:37;97686.78;;;8.73;55.93
70304;BME280;57712;48.752;11.348;2023-03-01T13:12:01;97693.16;;;9.07;55.23
70304;BME280;57712;48.752;11.348;2023-03-01T13:14:39;97687.41;;;9.36;58.05
70304;BME280;57712;48.752;11.348;2023-03-01T13:17:30;97693.69;;;9.33;57.01
70304;BME280;57712;48.752;11.348;2023-03-01T13:19:58;97694.81;;;9.39;55.79
70304;BME280;57712;48.752;11.348;2023-03-01T13:22:28;97694.34;;;9.44;55.16
70304;BME280;57712;48.752;11.348;2023-03-01T13:25:03;97700.06;;;9.94;56.91
70304;BME280;57712;48.752;11.348;2023-03-01T13:27:37;97696.94;;;9.17;55.26
70304;BME280;57712;48.752;11.348;2023-03-01T13:30:11;97690.09;;;9.77;53.72
70304;BME280;57712;48.752;11.348;2023-03-01T13:32:51;97694.97;;;9.59;57.87
70304;BME280;57712;48.752;11.348;2023-03-01T13:37:44;97702.41;;;9.20;55.55
70304;BME280;57712;48.752;11.348;2023-03-01T13:45:40;97725.25;;;9.37;56.32
70304;BME280;57712;48.752;11.348;2023-03-01T13:48:14;97720.09;;;10.18;56.64
70304;BME280;57712;48.752;11.348;2023-03-01T13:50:51;97710.00;;;9.77;55.86
70304;BME280;57712;48.752;11.348;2023-03-01T13:53:23;97711.34;;;9.24;56.31
70304;BME280;57712;48.752;11.348;2023-03-01T13:55:55;97716.53;;;9.12;56.28
70304;BME280;57712;48.752;11.348;2023-03-01T13:58:28;97705.28;;;9.44;56.03
70304;BME280;57712;48.752;11.348;2023-03-01T14:01:06;97703.41;;;8.92;57.99
70304;BME280;57712;48.752;11.348;2023-03-01T14:03:40;97715.88;;;8.97;57.98
70304;BME280;57712;48.752;11.348;2023-03-01T14:06:12;97692.53;;;8.89;59.68
70304;BME280;57712;48.752;11.348;2023-03-01T14:08:44;97696.00;;;8.34;60.42
70304;BME280;57712;48.752;11.348;2023-03-01T14:19:27;97695.78;;;8.70;61.81
70304;BME280;57712;48.752;11.348;2023-03-01T14:22:22;97694.00;;;8.45;61.88
70304;BME280;57712;48.752;11.348;2023-03-01T14:27:21;97685.81;;;8.45;65.31
70304;BME280;57712;48.752;11.348;2023-03-01T14:30:10;97687.19;;;8.05;64.92
70304;BME280;57712;48.752;11.348;2023-03-01T14:32:38;97694.38;;;8.47;64.39
70304;BME280;57712;48.752;11.348;2023-03-01T14:35:23;97683.50;;;8.33;66.25
70304;BME280;57712;48.752;11.348;2023-03-01T14:37:50;97688.38;;;7.97;67.02
70304;BME280;57712;48.752;11.348;2023-03-01T14:40:32;97692.31;;;7.92;69.95
70304;BME280;57712;48.752;11.348;2023-03-01T14:43:00;97679.34;;;8.10;69.02